createdAt,value
2022-10-05T00:00:27.546Z,96954.03
2022-10-05T00:01:01.329Z,96954.59
2022-10-05T00:01:35.469Z,96952.09
2022-10-05T00:02:25.056Z,96951.03
2022-10-05T00:02:59.215Z,96949.44
2022-10-05T00:03:38.890Z,96950.91
2022-10-05T00:04:16.915Z,96950.84
2022-10-05T00:04:53.013Z,96947.19
2022-10-05T00:05:31.910Z,96948.25
2022-10-05T00:06:03.961Z,96941.41
2022-10-05T00:06:35.839Z,96944.00
2022-10-05T00:07:20.139Z,96940.47
2022-10-05T00:07:55.050Z,96938.16
2022-10-05T00:08:32.828Z,96934.63
2022-10-05T00:09:13.250Z,96937.78
2022-10-05T00:09:47.927Z,96938.00
2022-10-05T00:10:20.717Z,96938.19
2022-10-05T00:10:52.754Z,96933.81
2022-10-05T00:11:24.692Z,96935.94
2022-10-05T00:11:56.535Z,96932.94
2022-10-05T00:12:29.889Z,96939.41
2022-10-05T00:13:06.181Z,96936.91
2022-10-05T00:13:40.130Z,96935.94
2022-10-05T00:14:23.829Z,96930.50
2022-10-05T00:15:00.285Z,96936.03
2022-10-05T00:15:32.159Z,96939.22
2022-10-05T00:16:22.102Z,96938.03
2022-10-05T00:16:54.399Z,96931.47
2022-10-05T00:17:29.591Z,96936.50
2022-10-05T00:18:10.100Z,96928.91
2022-10-05T00:18:45.921Z,96933.81
2022-10-05T00:19:32.215Z,96929.78
2022-10-05T00:20:21.080Z,96933.00
2022-10-05T00:20:52.884Z,96932.25
2022-10-05T00:21:27.179Z,96931.66
2022-10-05T00:22:18.500Z,96927.84
2022-10-05T00:23:00.744Z,96931.69
2022-10-05T00:23:32.641Z,96929.66
2022-10-05T00:24:11.722Z,96934.13
2022-10-05T00:24:45.841Z,96930.22
2022-10-05T00:25:21.575Z,96933.81
2022-10-05T00:25:53.418Z,96933.50
2022-10-05T00:26:27.689Z,96931.59
2022-10-05T00:27:01.891Z,96935.06
2022-10-05T00:27:38.888Z,96935.56
2022-10-05T00:28:29.202Z,96934.41
2022-10-05T00:29:02.510Z,96931.00
2022-10-05T00:29:34.793Z,96934.31
2022-10-05T00:30:20.027Z,96931.53
2022-10-05T00:30:55.735Z,96939.44
2022-10-05T00:31:32.862Z,96941.41
2022-10-05T00:32:04.991Z,96933.28
2022-10-05T00:32:36.839Z,96929.91
2022-10-05T00:33:08.727Z,96937.91
2022-10-05T00:33:40.671Z,96942.50
2022-10-05T00:34:12.545Z,96938.72
2022-10-05T00:34:45.369Z,96936.94
2022-10-05T00:35:18.760Z,96930.47
2022-10-05T00:35:50.747Z,96929.66
2022-10-05T00:36:22.922Z,96925.19
2022-10-05T00:36:54.747Z,96932.47
2022-10-05T00:37:26.589Z,96924.63
2022-10-05T00:37:58.543Z,96920.97
2022-10-05T00:38:30.744Z,96929.22
2022-10-05T00:39:02.982Z,96917.09
2022-10-05T00:39:38.310Z,96921.56
2022-10-05T00:40:27.422Z,96917.09
2022-10-05T00:41:05.341Z,96919.22
2022-10-05T00:41:55.080Z,96920.31
2022-10-05T00:42:58.142Z,96917.50
2022-10-05T00:44:04.194Z,96928.25
2022-10-05T00:44:46.964Z,96916.84
2022-10-05T00:45:27.379Z,96918.50
2022-10-05T00:46:22.301Z,96920.66
2022-10-05T00:47:01.678Z,96918.38
2022-10-05T00:47:52.736Z,96921.88
2022-10-05T00:48:42.765Z,96927.88
2022-10-05T00:49:36.446Z,96923.31
2022-10-05T00:50:20.629Z,96923.06
2022-10-05T00:50:55.466Z,96920.44
2022-10-05T00:51:29.025Z,96918.41
2022-10-05T00:52:20.438Z,96924.03
2022-10-05T00:53:11.253Z,96922.19
2022-10-05T00:53:55.296Z,96925.50
2022-10-05T00:54:44.684Z,96921.75
2022-10-05T00:55:50.234Z,96923.09
2022-10-05T00:56:49.050Z,96928.59
2022-10-05T00:57:44.234Z,96929.94
2022-10-05T00:58:34.307Z,96922.28
2022-10-05T00:59:18.256Z,96923.41
2022-10-05T01:00:04.505Z,96923.19
2022-10-05T01:01:01.941Z,96926.09
2022-10-05T01:01:56.710Z,96927.84
2022-10-05T01:03:06.627Z,96925.06
2022-10-05T01:03:41.521Z,96931.72
2022-10-05T01:04:22.221Z,96928.72
2022-10-05T01:05:21.848Z,96924.56
2022-10-05T01:06:18.393Z,96921.59
2022-10-05T01:07:02.121Z,96923.00
2022-10-05T01:08:11.631Z,96910.94
2022-10-05T01:08:55.372Z,96917.72
2022-10-05T01:09:54.512Z,96916.94
2022-10-05T01:10:32.672Z,96916.66
2022-10-05T01:11:16.805Z,96916.13
2022-10-05T01:12:24.971Z,96917.47
2022-10-05T01:13:06.181Z,96909.38
2022-10-05T01:13:49.850Z,96913.09
2022-10-05T01:14:42.149Z,96911.41
2022-10-05T01:15:23.487Z,96915.50
2022-10-05T01:16:04.294Z,96912.84
2022-10-05T01:16:51.576Z,96914.72
2022-10-05T01:17:32.529Z,96911.78
2022-10-05T01:18:30.396Z,96925.06
2022-10-05T01:19:10.429Z,96914.19
2022-10-05T01:19:56.554Z,96913.00
2022-10-05T01:20:55.584Z,96913.41
2022-10-05T01:21:30.913Z,96916.97
2022-10-05T01:22:12.592Z,96917.88
2022-10-05T01:23:21.903Z,96921.56
2022-10-05T01:24:17.949Z,96915.91
2022-10-05T01:25:12.387Z,96914.84
2022-10-05T01:26:21.310Z,96908.66
2022-10-05T01:27:15.346Z,96908.66
2022-10-05T01:27:57.280Z,96911.31
2022-10-05T01:28:37.893Z,96908.19
2022-10-05T01:29:09.682Z,96908.41
2022-10-05T01:29:54.627Z,96911.31
2022-10-05T01:30:27.472Z,96908.56
2022-10-05T01:31:43.982Z,96908.00
2022-10-05T01:32:23.730Z,96908.44
2022-10-05T01:33:27.137Z,96914.09
2022-10-05T01:34:11.292Z,96908.59
2022-10-05T01:34:51.053Z,96907.56
2022-10-05T01:35:28.818Z,96905.41
2022-10-05T01:36:29.460Z,96906.91
2022-10-05T01:37:38.078Z,96908.09
2022-10-05T01:38:29.457Z,96899.84
2022-10-05T01:39:17.478Z,96895.63
2022-10-05T01:40:15.683Z,96898.00
2022-10-05T01:41:05.620Z,96903.47
2022-10-05T01:42:14.293Z,96893.59
2022-10-05T01:42:55.077Z,96893.75
2022-10-05T01:43:47.651Z,96893.88
2022-10-05T01:44:33.104Z,96892.00
2022-10-05T01:45:12.481Z,96894.00
2022-10-05T01:46:15.570Z,96887.69
2022-10-05T01:46:50.195Z,96887.50
2022-10-05T01:47:30.993Z,96890.78
2022-10-05T01:48:12.904Z,96880.34
2022-10-05T01:48:59.549Z,96883.53
2022-10-05T01:49:38.372Z,96883.19
2022-10-05T01:50:21.417Z,96884.91
2022-10-05T01:51:11.318Z,96884.16
2022-10-05T01:52:01.727Z,96886.53
2022-10-05T01:52:36.269Z,96884.97
2022-10-05T01:53:21.172Z,96877.53
2022-10-05T01:54:10.402Z,96880.44
2022-10-05T01:55:03.974Z,96881.72
2022-10-05T01:55:44.942Z,96877.97
2022-10-05T01:56:31.482Z,96875.28
2022-10-05T01:57:05.946Z,96878.81
2022-10-05T01:57:46.496Z,96873.69
2022-10-05T01:58:44.433Z,96878.34
2022-10-05T01:59:38.738Z,96878.75
2022-10-05T02:00:14.603Z,96875.66
2022-10-05T02:01:01.367Z,96869.31
2022-10-05T02:01:33.316Z,96869.50
2022-10-05T02:02:10.249Z,96869.06
2022-10-05T02:03:02.577Z,96861.94
2022-10-05T02:03:43.351Z,96860.34
2022-10-05T02:04:49.700Z,96864.34
2022-10-05T02:05:33.033Z,96859.00
2022-10-05T02:06:18.690Z,96853.28
2022-10-05T02:06:53.967Z,96852.84
2022-10-05T02:07:45.960Z,96854.31
2022-10-05T02:08:22.175Z,96861.75
2022-10-05T02:09:07.578Z,96847.75
2022-10-05T02:09:49.036Z,96848.72
2022-10-05T02:10:29.049Z,96856.28
2022-10-05T02:11:13.179Z,96853.16
2022-10-05T02:11:51.592Z,96851.19
2022-10-05T02:12:27.975Z,96852.47
2022-10-05T02:13:27.923Z,96855.78
2022-10-05T02:14:13.042Z,96857.66
2022-10-05T02:14:50.946Z,96854.41
2022-10-05T02:15:42.393Z,96862.88
2022-10-05T02:16:32.678Z,96859.63
2022-10-05T02:17:17.244Z,96863.53
2022-10-05T02:17:52.854Z,96864.81
2022-10-05T02:18:30.456Z,96862.59
2022-10-05T02:19:09.260Z,96861.69
2022-10-05T02:19:51.459Z,96860.75
2022-10-05T02:20:28.350Z,96860.00
2022-10-05T02:21:02.959Z,96857.34
2022-10-05T02:21:36.464Z,96866.22
2022-10-05T02:22:15.042Z,96858.63
2022-10-05T02:22:51.672Z,96858.13
2022-10-05T02:23:32.649Z,96860.63
2022-10-05T02:24:12.144Z,96864.72
2022-10-05T02:24:54.462Z,96862.13
2022-10-05T02:25:31.221Z,96864.53
2022-10-05T02:26:04.959Z,96861.25
2022-10-05T02:26:39.302Z,96867.84
2022-10-05T02:27:15.157Z,96865.97
2022-10-05T02:27:53.198Z,96874.09
2022-10-05T02:28:33.255Z,96870.31
2022-10-05T02:29:11.741Z,96872.38
2022-10-05T02:29:48.333Z,96869.38
2022-10-05T02:30:21.761Z,96867.66
2022-10-05T02:31:00.989Z,96865.09
2022-10-05T02:31:40.646Z,96874.03
2022-10-05T02:32:19.954Z,96870.44
2022-10-05T02:33:21.227Z,96864.22
2022-10-05T02:34:42.617Z,96869.25
2022-10-05T02:35:22.310Z,96863.66
2022-10-05T02:36:01.569Z,96861.94
2022-10-05T02:36:36.398Z,96867.78
2022-10-05T02:37:17.425Z,96866.00
2022-10-05T02:38:10.395Z,96868.50
2022-10-05T02:39:07.708Z,96868.88
2022-10-05T02:39:42.569Z,96862.09
2022-10-05T02:40:29.310Z,96868.94
2022-10-05T02:41:07.149Z,96869.88
2022-10-05T02:42:06.617Z,96871.66
2022-10-05T02:42:54.303Z,96872.03
2022-10-05T02:43:41.540Z,96868.09
2022-10-05T02:44:38.968Z,96879.41
2022-10-05T02:45:41.412Z,96872.72
2022-10-05T02:46:28.922Z,96877.84
2022-10-05T02:47:14.739Z,96880.47
2022-10-05T02:48:21.994Z,96876.72
2022-10-05T02:49:02.579Z,96883.97
2022-10-05T02:49:40.819Z,96882.91
2022-10-05T02:50:43.620Z,96886.97
2022-10-05T02:51:29.741Z,96883.50
2022-10-05T02:52:21.353Z,96890.09
2022-10-05T02:53:11.802Z,96882.06
2022-10-05T02:54:03.786Z,96880.44
2022-10-05T02:55:16.987Z,96883.25
2022-10-05T02:56:11.212Z,96887.72
2022-10-05T02:56:49.998Z,96882.44
2022-10-05T02:57:27.182Z,96885.25
2022-10-05T02:58:16.222Z,96887.00
2022-10-05T02:59:09.058Z,96884.75
2022-10-05T02:59:52.322Z,96889.25
2022-10-05T03:00:25.970Z,96884.84
2022-10-05T03:01:07.882Z,96885.63
2022-10-05T03:01:58.387Z,96896.94
2022-10-05T03:02:52.660Z,96892.94
2022-10-05T03:04:10.770Z,96884.78
2022-10-05T03:04:48.864Z,96885.75
2022-10-05T03:05:20.943Z,96889.09
2022-10-05T03:06:02.609Z,96884.84
2022-10-05T03:06:45.628Z,96885.47
2022-10-05T03:07:31.186Z,96884.03
2022-10-05T03:08:22.067Z,96887.81
2022-10-05T03:09:05.274Z,96883.59
2022-10-05T03:10:00.761Z,96883.75
2022-10-05T03:10:45.537Z,96885.47
2022-10-05T03:11:33.445Z,96880.75
2022-10-05T03:12:12.470Z,96879.25
2022-10-05T03:12:54.144Z,96881.28
2022-10-05T03:14:02.829Z,96879.72
2022-10-05T03:14:49.285Z,96875.94
2022-10-05T03:15:40.763Z,96877.94
2022-10-05T03:16:25.699Z,96875.34
2022-10-05T03:17:11.200Z,96876.59
2022-10-05T03:17:57.601Z,96868.13
2022-10-05T03:18:48.325Z,96871.13
2022-10-05T03:19:41.867Z,96872.03
2022-10-05T03:20:16.563Z,96874.56
2022-10-05T03:21:12.080Z,96871.22
2022-10-05T03:21:50.369Z,96866.69
2022-10-05T03:22:48.243Z,96872.19
2022-10-05T03:23:38.380Z,96871.13
2022-10-05T03:24:35.394Z,96874.56
2022-10-05T03:25:32.655Z,96867.50
2022-10-05T03:26:30.221Z,96870.81
2022-10-05T03:27:20.170Z,96871.59
2022-10-05T03:28:31.542Z,96867.34
2022-10-05T03:29:19.245Z,96877.84
2022-10-05T03:30:05.626Z,96864.66
2022-10-05T03:31:28.105Z,96870.00
2022-10-05T03:32:00.071Z,96871.44
2022-10-05T03:33:03.020Z,96869.84
2022-10-05T03:34:05.410Z,96869.34
2022-10-05T03:35:03.844Z,96873.44
2022-10-05T03:35:43.931Z,96871.53
2022-10-05T03:36:18.526Z,96861.88
2022-10-05T03:37:07.262Z,96859.50
2022-10-05T03:37:44.899Z,96861.69
2022-10-05T03:38:25.730Z,96860.75
2022-10-05T03:39:14.300Z,96861.69
2022-10-05T03:39:56.808Z,96863.13
2022-10-05T03:40:38.315Z,96859.81
2022-10-05T03:41:26.369Z,96862.06
2022-10-05T03:42:14.868Z,96858.75
2022-10-05T03:43:13.813Z,96852.88
2022-10-05T03:43:55.345Z,96855.66
2022-10-05T03:44:48.109Z,96856.47
2022-10-05T03:45:33.295Z,96851.56
2022-10-05T03:46:13.940Z,96853.19
2022-10-05T03:47:06.768Z,96859.03
2022-10-05T03:47:52.210Z,96848.22
2022-10-05T03:49:00.884Z,96849.72
2022-10-05T03:49:52.612Z,96843.41
2022-10-05T03:50:30.194Z,96841.53
2022-10-05T03:51:05.233Z,96846.81
2022-10-05T03:51:44.697Z,96848.88
2022-10-05T03:52:23.194Z,96842.44
2022-10-05T03:53:00.479Z,96844.00
2022-10-05T03:53:47.366Z,96842.38
2022-10-05T03:54:33.282Z,96847.69
2022-10-05T03:55:09.639Z,96846.47
2022-10-05T03:56:06.245Z,96847.53
2022-10-05T03:56:38.399Z,96849.25
2022-10-05T03:57:33.319Z,96848.69
2022-10-05T03:58:13.656Z,96852.63
2022-10-05T03:59:18.482Z,96848.63
2022-10-05T04:00:23.191Z,96846.44
2022-10-05T04:01:07.369Z,96849.19
2022-10-05T04:01:48.360Z,96851.50
2022-10-05T04:02:26.605Z,96850.38
2022-10-05T04:03:07.582Z,96852.06
2022-10-05T04:03:48.373Z,96852.66
2022-10-05T04:04:24.532Z,96854.16
2022-10-05T04:05:06.755Z,96845.81
2022-10-05T04:06:03.681Z,96849.66
2022-10-05T04:06:48.723Z,96849.78
2022-10-05T04:07:50.479Z,96850.22
2022-10-05T04:08:47.658Z,96851.94
2022-10-05T04:09:30.307Z,96857.34
2022-10-05T04:10:12.175Z,96853.88
2022-10-05T04:10:52.120Z,96855.59
2022-10-05T04:11:35.484Z,96856.53
2022-10-05T04:12:25.960Z,96856.06
2022-10-05T04:13:05.270Z,96855.41
2022-10-05T04:13:52.000Z,96863.25
2022-10-05T04:14:34.192Z,96857.59
2022-10-05T04:15:23.790Z,96860.16
2022-10-05T04:16:31.714Z,96862.91
2022-10-05T04:17:29.206Z,96861.72
2022-10-05T04:18:05.553Z,96863.00
2022-10-05T04:18:54.584Z,96861.88
2022-10-05T04:19:49.993Z,96861.41
2022-10-05T04:20:31.160Z,96863.31
2022-10-05T04:21:30.749Z,96867.69
2022-10-05T04:22:22.013Z,96863.94
2022-10-05T04:23:11.519Z,96862.22
2022-10-05T04:24:03.123Z,96859.69
2022-10-05T04:24:44.209Z,96861.13
2022-10-05T04:25:27.575Z,96855.94
2022-10-05T04:26:14.126Z,96855.41
2022-10-05T04:26:57.513Z,96855.94
2022-10-05T04:27:39.243Z,96862.81
2022-10-05T04:28:15.245Z,96861.25
2022-10-05T04:29:05.169Z,96861.25
2022-10-05T04:29:42.995Z,96865.31
2022-10-05T04:30:18.505Z,96861.09
2022-10-05T04:30:54.172Z,96867.38
2022-10-05T04:32:04.649Z,96862.84
2022-10-05T04:32:52.802Z,96861.59
2022-10-05T04:33:27.699Z,96867.38
2022-10-05T04:34:13.026Z,96863.94
2022-10-05T04:35:03.130Z,96866.25
2022-10-05T04:35:47.983Z,96862.50
2022-10-05T04:36:32.102Z,96862.06
2022-10-05T04:37:10.609Z,96866.75
2022-10-05T04:38:00.827Z,96871.63
2022-10-05T04:38:44.889Z,96866.13
2022-10-05T04:39:32.125Z,96872.88
2022-10-05T04:40:35.181Z,96869.09
2022-10-05T04:41:33.241Z,96873.84
2022-10-05T04:42:34.347Z,96867.69
2022-10-05T04:43:17.716Z,96869.41
2022-10-05T04:44:24.278Z,96870.06
2022-10-05T04:45:13.472Z,96872.25
2022-10-05T04:46:23.506Z,96865.34
2022-10-05T04:47:14.095Z,96871.78
2022-10-05T04:48:04.690Z,96869.75
2022-10-05T04:48:55.506Z,96858.91
2022-10-05T04:49:51.571Z,96864.56
2022-10-05T04:50:31.151Z,96868.16
2022-10-05T04:51:24.352Z,96863.47
2022-10-05T04:52:24.672Z,96863.13
2022-10-05T04:53:15.288Z,96869.41
2022-10-05T04:53:56.111Z,96868.78
2022-10-05T04:55:09.001Z,96864.06
2022-10-05T04:55:52.381Z,96865.16
2022-10-05T04:56:39.638Z,96865.63
2022-10-05T04:57:32.284Z,96869.84
2022-10-05T04:58:52.476Z,96870.47
2022-10-05T04:59:36.656Z,96863.41
2022-10-05T05:00:13.944Z,96872.75
2022-10-05T05:01:08.720Z,96862.19
2022-10-05T05:02:00.185Z,96868.16
2022-10-05T05:02:53.228Z,96874.28
2022-10-05T05:03:54.834Z,96864.25
2022-10-05T05:04:51.850Z,96857.50
2022-10-05T05:06:15.972Z,96855.78
2022-10-05T05:07:42.277Z,96857.31
2022-10-05T05:08:32.030Z,96852.16
2022-10-05T05:09:19.111Z,96855.75
2022-10-05T05:09:59.954Z,96847.59
2022-10-05T05:10:51.520Z,96856.56
2022-10-05T05:11:51.122Z,96850.44
2022-10-05T05:12:40.849Z,96852.00
2022-10-05T05:13:31.639Z,96845.25
2022-10-05T05:14:35.270Z,96846.19
2022-10-05T05:15:34.469Z,96847.78
2022-10-05T05:16:12.338Z,96848.09
2022-10-05T05:16:48.719Z,96844.66
2022-10-05T05:18:08.626Z,96855.00
2022-10-05T05:18:58.592Z,96845.88
2022-10-05T05:19:45.316Z,96852.75
2022-10-05T05:20:43.111Z,96851.84
2022-10-05T05:21:27.409Z,96850.13
2022-10-05T05:22:29.048Z,96847.59
2022-10-05T05:23:10.596Z,96849.97
2022-10-05T05:23:58.980Z,96853.75
2022-10-05T05:24:48.707Z,96852.00
2022-10-05T05:25:45.272Z,96852.50
2022-10-05T05:26:23.334Z,96851.88
2022-10-05T05:27:07.314Z,96846.50
2022-10-05T05:27:43.162Z,96853.56
2022-10-05T05:28:40.544Z,96854.50
2022-10-05T05:29:23.469Z,96854.38
2022-10-05T05:30:22.088Z,96848.88
2022-10-05T05:31:12.435Z,96853.91
2022-10-05T05:31:55.212Z,96853.41
2022-10-05T05:32:51.826Z,96848.25
2022-10-05T05:33:37.633Z,96849.66
2022-10-05T05:34:41.320Z,96850.59
2022-10-05T05:35:36.452Z,96850.91
2022-10-05T05:36:23.418Z,96855.72
2022-10-05T05:37:05.365Z,96845.75
2022-10-05T05:37:49.371Z,96852.00
2022-10-05T05:38:45.408Z,96849.91
2022-10-05T05:39:26.094Z,96851.00
2022-10-05T05:40:21.024Z,96844.91
2022-10-05T05:41:11.202Z,96849.91
2022-10-05T05:42:20.667Z,96851.06
2022-10-05T05:42:59.376Z,96853.41
2022-10-05T05:43:48.322Z,96848.97
2022-10-05T05:44:25.020Z,96849.31
2022-10-05T05:45:22.145Z,96848.25
2022-10-05T05:46:01.745Z,96851.00
2022-10-05T05:47:03.072Z,96851.81
2022-10-05T05:47:41.945Z,96850.25
2022-10-05T05:48:22.239Z,96847.06
2022-10-05T05:48:56.991Z,96845.00
2022-10-05T05:49:46.962Z,96841.06
2022-10-05T05:50:34.118Z,96846.41
2022-10-05T05:51:25.559Z,96855.09
2022-10-05T05:52:04.593Z,96845.84
2022-10-05T05:52:42.985Z,96852.88
2022-10-05T05:53:25.996Z,96848.78
2022-10-05T05:54:03.843Z,96849.41
2022-10-05T05:54:48.577Z,96854.84
2022-10-05T05:55:29.747Z,96855.78
2022-10-05T05:56:10.724Z,96850.63
2022-10-05T05:56:50.200Z,96850.44
2022-10-05T05:57:29.644Z,96848.19
2022-10-05T05:58:15.601Z,96854.44
2022-10-05T05:59:02.269Z,96849.38
2022-10-05T06:00:06.776Z,96850.94
2022-10-05T06:01:30.623Z,96846.16
2022-10-05T06:02:13.908Z,96859.16
2022-10-05T06:03:04.436Z,96850.13
2022-10-05T06:03:36.820Z,96854.84
2022-10-05T06:04:28.244Z,96860.56
2022-10-05T06:05:20.201Z,96855.34
2022-10-05T06:05:57.197Z,96855.84
2022-10-05T06:06:35.909Z,96852.31
2022-10-05T06:07:15.563Z,96857.44
2022-10-05T06:07:47.707Z,96854.00
2022-10-05T06:08:56.179Z,96858.53
2022-10-05T06:09:46.043Z,96853.28
2022-10-05T06:10:43.610Z,96864.72
2022-10-05T06:11:23.140Z,96854.06
2022-10-05T06:12:20.867Z,96854.34
2022-10-05T06:13:00.926Z,96858.50
2022-10-05T06:13:38.159Z,96859.22
2022-10-05T06:14:21.510Z,96864.69
2022-10-05T06:15:03.889Z,96862.31
2022-10-05T06:15:57.629Z,96874.56
2022-10-05T06:16:51.962Z,96867.41
2022-10-05T06:17:52.749Z,96870.75
2022-10-05T06:18:25.661Z,96869.53
2022-10-05T06:19:08.481Z,96881.16
2022-10-05T06:19:41.917Z,96873.19
2022-10-05T06:20:33.406Z,96874.63
2022-10-05T06:21:38.467Z,96874.00
2022-10-05T06:22:22.460Z,96863.34
2022-10-05T06:23:00.836Z,96863.25
2022-10-05T06:24:08.058Z,96869.94
2022-10-05T06:24:53.513Z,96867.91
2022-10-05T06:25:46.415Z,96872.47
2022-10-05T06:26:29.507Z,96871.75
2022-10-05T06:27:25.028Z,96871.50
2022-10-05T06:28:02.780Z,96878.84
2022-10-05T06:28:36.534Z,96881.72
2022-10-05T06:29:17.943Z,96879.09
2022-10-05T06:30:09.953Z,96878.88
2022-10-05T06:30:50.213Z,96874.38
2022-10-05T06:31:30.458Z,96883.03
2022-10-05T06:32:09.931Z,96884.34
2022-10-05T06:33:17.710Z,96883.03
2022-10-05T06:33:58.647Z,96887.38
2022-10-05T06:34:46.732Z,96885.72
2022-10-05T06:35:40.520Z,96885.88
2022-10-05T06:36:26.188Z,96883.97
2022-10-05T06:37:06.084Z,96888.00
2022-10-05T06:37:56.679Z,96885.88
2022-10-05T06:39:11.518Z,96893.44
2022-10-05T06:40:00.060Z,96890.94
2022-10-05T06:41:06.583Z,96884.34
2022-10-05T06:42:38.079Z,96891.94
2022-10-05T06:43:49.913Z,96891.28
2022-10-05T06:44:53.411Z,96885.50
2022-10-05T06:45:53.207Z,96886.03
2022-10-05T06:47:02.324Z,96884.84
2022-10-05T06:48:28.751Z,96891.53
2022-10-05T06:49:31.258Z,96896.66
2022-10-05T06:50:36.016Z,96895.09
2022-10-05T06:51:56.959Z,96893.44
2022-10-05T06:52:48.299Z,96897.78
2022-10-05T06:53:34.156Z,96887.81
2022-10-05T06:54:28.247Z,96895.84
2022-10-05T06:55:09.601Z,96900.19
2022-10-05T06:56:09.482Z,96895.34
2022-10-05T06:56:52.387Z,96896.00
2022-10-05T06:57:55.675Z,96895.88
2022-10-05T06:58:45.397Z,96895.78
2022-10-05T06:59:43.130Z,96902.06
2022-10-05T07:00:21.753Z,96902.38
2022-10-05T07:01:16.100Z,96899.91
2022-10-05T07:01:48.668Z,96899.16
2022-10-05T07:02:42.922Z,96901.16
2022-10-05T07:03:18.050Z,96895.13
2022-10-05T07:04:18.367Z,96896.88
2022-10-05T07:05:11.863Z,96903.81
2022-10-05T07:05:55.801Z,96905.53
2022-10-05T07:06:39.712Z,96915.22
2022-10-05T07:07:50.564Z,96902.22
2022-10-05T07:08:29.686Z,96908.34
2022-10-05T07:09:07.099Z,96915.25
2022-10-05T07:10:17.911Z,96909.94
2022-10-05T07:11:18.505Z,96905.28
2022-10-05T07:12:10.861Z,96912.69
2022-10-05T07:13:24.165Z,96912.53
2022-10-05T07:14:04.190Z,96913.66
2022-10-05T07:14:53.410Z,96919.78
2022-10-05T07:15:39.270Z,96909.94
2022-10-05T07:16:17.096Z,96911.16
2022-10-05T07:17:23.089Z,96909.47
2022-10-05T07:18:19.271Z,96916.13
2022-10-05T07:19:16.848Z,96920.09
2022-10-05T07:20:16.553Z,96920.69
2022-10-05T07:21:09.604Z,96923.66
2022-10-05T07:22:21.881Z,96924.69
2022-10-05T07:23:16.337Z,96926.22
2022-10-05T07:23:58.709Z,96927.19
2022-10-05T07:24:34.494Z,96922.03
2022-10-05T07:25:33.072Z,96924.41
2022-10-05T07:26:07.425Z,96921.28
2022-10-05T07:26:50.925Z,96918.00
2022-10-05T07:27:27.223Z,96925.47
2022-10-05T07:29:00.675Z,96927.78
2022-10-05T07:29:42.709Z,96919.72
2022-10-05T07:30:15.280Z,96923.91
2022-10-05T07:30:56.550Z,96928.28
2022-10-05T07:31:31.912Z,96932.38
2022-10-05T07:32:24.734Z,96929.94
2022-10-05T07:33:06.692Z,96935.34
2022-10-05T07:34:15.547Z,96929.69
2022-10-05T07:35:36.726Z,96935.72
2022-10-05T07:36:37.104Z,96936.41
2022-10-05T07:37:34.921Z,96936.53
2022-10-05T07:38:28.663Z,96938.91
2022-10-05T07:39:17.735Z,96937.75
2022-10-05T07:40:06.871Z,96933.44
2022-10-05T07:40:40.927Z,96946.22
2022-10-05T07:41:23.931Z,96936.44
2022-10-05T07:42:06.717Z,96936.50
2022-10-05T07:43:03.357Z,96947.50
2022-10-05T07:44:00.857Z,96942.47
2022-10-05T07:44:52.282Z,96936.19
2022-10-05T07:45:51.341Z,96933.75
2022-10-05T07:46:32.405Z,96941.34
2022-10-05T07:47:13.534Z,96939.28
2022-10-05T07:47:57.811Z,96937.31
2022-10-05T07:48:53.761Z,96934.69
2022-10-05T07:49:48.796Z,96941.84
2022-10-05T07:50:30.104Z,96941.00
2022-10-05T07:51:25.747Z,96942.09
2022-10-05T07:52:02.805Z,96941.34
2022-10-05T07:52:40.657Z,96943.34
2022-10-05T07:53:24.448Z,96934.63
2022-10-05T07:54:23.118Z,96934.16
2022-10-05T07:55:21.393Z,96939.16
2022-10-05T07:55:58.211Z,96940.78
2022-10-05T07:56:39.934Z,96943.41
2022-10-05T07:57:27.361Z,96939.63
2022-10-05T07:58:11.281Z,96941.84
2022-10-05T07:58:59.103Z,96937.38
2022-10-05T07:59:38.731Z,96945.50
2022-10-05T08:00:21.139Z,96943.00
2022-10-05T08:01:02.730Z,96941.31
2022-10-05T08:01:42.120Z,96943.38
2022-10-05T08:02:33.831Z,96940.50
2022-10-05T08:03:14.263Z,96947.88
2022-10-05T08:03:49.918Z,96943.78
2022-10-05T08:04:37.049Z,96934.28
2022-10-05T08:05:33.744Z,96942.09
2022-10-05T08:06:09.300Z,96944.38
2022-10-05T08:06:49.532Z,96944.50
2022-10-05T08:08:13.244Z,96944.09
2022-10-05T08:08:57.549Z,96941.22
2022-10-05T08:09:48.686Z,96939.03
2022-10-05T08:10:49.234Z,96938.94
2022-10-05T08:11:31.089Z,96934.25
2022-10-05T08:12:08.858Z,96944.53
2022-10-05T08:13:06.354Z,96938.31
2022-10-05T08:13:47.300Z,96939.44
2022-10-05T08:14:27.739Z,96940.66
2022-10-05T08:15:21.603Z,96934.41
2022-10-05T08:15:59.120Z,96942.59
2022-10-05T08:16:38.026Z,96932.38
2022-10-05T08:17:25.421Z,96936.84
2022-10-05T08:18:26.289Z,96934.47
2022-10-05T08:19:25.730Z,96943.88
2022-10-05T08:20:19.655Z,96935.91
2022-10-05T08:20:57.911Z,96943.44
2022-10-05T08:21:41.499Z,96939.19
2022-10-05T08:22:23.578Z,96942.16
2022-10-05T08:23:02.299Z,96935.28
2022-10-05T08:23:56.720Z,96933.66
2022-10-05T08:24:54.500Z,96932.28
2022-10-05T08:25:38.821Z,96936.56
2022-10-05T08:26:26.863Z,96931.59
2022-10-05T08:27:17.572Z,96934.91
2022-10-05T08:28:37.343Z,96936.69
2022-10-05T08:29:34.308Z,96925.63
2022-10-05T08:30:10.529Z,96936.56
2022-10-05T08:30:55.718Z,96927.28
2022-10-05T08:31:31.894Z,96937.50
2022-10-05T08:32:12.535Z,96934.75
2022-10-05T08:32:55.288Z,96936.28
2022-10-05T08:33:35.189Z,96935.31
2022-10-05T08:34:34.419Z,96933.06
2022-10-05T08:35:37.625Z,96924.75
2022-10-05T08:36:15.815Z,96934.13
2022-10-05T08:37:07.083Z,96932.19
2022-10-05T08:37:42.319Z,96929.66
2022-10-05T08:38:19.382Z,96929.69
2022-10-05T08:38:55.210Z,96928.63
2022-10-05T08:39:37.297Z,96931.28
2022-10-05T08:40:31.018Z,96931.25
2022-10-05T08:41:31.087Z,96933.22
2022-10-05T08:42:21.041Z,96924.69
2022-10-05T08:43:02.050Z,96925.16
2022-10-05T08:43:55.923Z,96925.94
2022-10-05T08:44:46.707Z,96925.28
2022-10-05T08:45:34.494Z,96925.25
2022-10-05T08:46:29.390Z,96926.38
2022-10-05T08:47:33.785Z,96928.22
2022-10-05T08:48:54.085Z,96920.94
2022-10-05T08:49:37.605Z,96923.13
2022-10-05T08:50:22.246Z,96923.50
2022-10-05T08:51:24.095Z,96915.84
2022-10-05T08:52:25.272Z,96926.81
2022-10-05T08:53:19.616Z,96924.47
2022-10-05T08:54:22.490Z,96922.00
2022-10-05T08:55:09.730Z,96924.66
2022-10-05T08:56:04.576Z,96927.56
2022-10-05T08:56:57.683Z,96924.75
2022-10-05T08:58:03.345Z,96928.63
2022-10-05T08:59:12.470Z,96929.03
2022-10-05T09:00:17.896Z,96927.38
2022-10-05T09:01:09.777Z,96920.91
2022-10-05T09:02:04.948Z,96928.06
2022-10-05T09:02:49.057Z,96931.34
2022-10-05T09:03:34.201Z,96930.63
2022-10-05T09:04:30.496Z,96931.88
2022-10-05T09:05:22.071Z,96932.66
2022-10-05T09:06:15.407Z,96931.44
2022-10-05T09:06:51.190Z,96927.22
2022-10-05T09:08:00.985Z,96932.97
2022-10-05T09:08:44.910Z,96922.44
2022-10-05T09:09:49.919Z,96931.75
2022-10-05T09:10:43.335Z,96929.91
2022-10-05T09:11:37.600Z,96920.28
2022-10-05T09:12:51.261Z,96932.31
2022-10-05T09:13:25.960Z,96932.38
2022-10-05T09:14:21.667Z,96927.34
2022-10-05T09:15:24.761Z,96936.25
2022-10-05T09:16:20.252Z,96920.72
2022-10-05T09:17:28.477Z,96925.78
2022-10-05T09:18:19.236Z,96934.31
2022-10-05T09:19:10.081Z,96931.19
2022-10-05T09:20:09.878Z,96931.97
2022-10-05T09:20:55.692Z,96931.59
2022-10-05T09:21:41.343Z,96923.44
2022-10-05T09:22:16.505Z,96923.47